Round Lake Park, Illinois
Current Conditions -  °F | °C
As of 12:55 PM on Saturday 25 Oct 2014 (Local Time) from KUGN Reporting Station
Clear Clear  
Wind Chill: 68°   Ceiling: Unl
Heat Index: 68°   Visibility: 10mi
Dew Point: 37°   Wind: 9mph
Humidity: 32%   Direction: 270°W
Pressure: 29.91"   Gusts: NA
Location:  42.3442°N, 88.1158°W
Report Text: KUGN 251755Z 27008KT 10SM CLR 20/03 A2991 RMK AO2 SLP123 T02000028 10200 20122 58008
Loading
Personal Weather Stations






























Interactive Weather Map
Tropical Storm Tracking
New forecast layout! Learn more

10-Day Weather Forecast

Advertisements
Track Severe Weather on mobile